sensor_id;sensor_type;location;lat;lon;timestamp;P1;durP1;ratioP1;P2;durP2;ratioP2
39256;SDS011;67272;48.066;11.038;2023-06-22T00:00:13;4.60;;;3.83;;
39256;SDS011;67272;48.066;11.038;2023-06-22T00:02:39;7.70;;;3.72;;
39256;SDS011;67272;48.066;11.038;2023-06-22T00:05:06;4.35;;;3.15;;
39256;SDS011;67272;48.066;11.038;2023-06-22T00:07:44;5.85;;;3.47;;
39256;SDS011;67272;48.066;11.038;2023-06-22T00:10:10;5.32;;;3.85;;
39256;SDS011;67272;48.066;11.038;2023-06-22T00:12:40;5.07;;;4.18;;
39256;SDS011;67272;48.066;11.038;2023-06-22T00:15:06;5.50;;;3.65;;
39256;SDS011;67272;48.066;11.038;2023-06-22T00:17:32;4.55;;;3.75;;
39256;SDS011;67272;48.066;11.038;2023-06-22T00:20:02;4.75;;;3.63;;
39256;SDS011;67272;48.066;11.038;2023-06-22T00:22:31;6.68;;;3.95;;
39256;SDS011;67272;48.066;11.038;2023-06-22T00:25:05;6.30;;;3.30;;
39256;SDS011;67272;48.066;11.038;2023-06-22T00:27:37;5.97;;;4.22;;
39256;SDS011;67272;48.066;11.038;2023-06-22T00:30:18;6.30;;;4.68;;
39256;SDS011;67272;48.066;11.038;2023-06-22T00:32:54;4.72;;;3.50;;
39256;SDS011;67272;48.066;11.038;2023-06-22T00:35:20;4.68;;;3.30;;
39256;SDS011;67272;48.066;11.038;2023-06-22T00:37:59;5.28;;;3.80;;
39256;SDS011;67272;48.066;11.038;2023-06-22T00:40:30;6.80;;;4.03;;
39256;SDS011;67272;48.066;11.038;2023-06-22T00:42:57;5.88;;;4.00;;
39256;SDS011;67272;48.066;11.038;2023-06-22T00:45:27;4.75;;;3.97;;
39256;SDS011;67272;48.066;11.038;2023-06-22T00:47:55;7.07;;;4.10;;
39256;SDS011;67272;48.066;11.038;2023-06-22T00:50:22;6.30;;;3.80;;
39256;SDS011;67272;48.066;11.038;2023-06-22T00:52:51;7.15;;;4.28;;
39256;SDS011;67272;48.066;11.038;2023-06-22T00:55:21;5.65;;;3.47;;
39256;SDS011;67272;48.066;11.038;2023-06-22T00:57:52;6.07;;;4.43;;
39256;SDS011;67272;48.066;11.038;2023-06-22T01:00:22;5.18;;;4.20;;
39256;SDS011;67272;48.066;11.038;2023-06-22T01:02:53;7.72;;;4.28;;
39256;SDS011;67272;48.066;11.038;2023-06-22T01:05:20;7.00;;;4.07;;
39256;SDS011;67272;48.066;11.038;2023-06-22T01:10:18;4.70;;;3.92;;
39256;SDS011;67272;48.066;11.038;2023-06-22T01:12:51;6.20;;;4.20;;
39256;SDS011;67272;48.066;11.038;2023-06-22T01:15:23;7.32;;;4.18;;
39256;SDS011;67272;48.066;11.038;2023-06-22T01:17:54;7.05;;;4.00;;
39256;SDS011;67272;48.066;11.038;2023-06-22T01:20:22;6.68;;;4.30;;
39256;SDS011;67272;48.066;11.038;2023-06-22T01:25:43;6.95;;;4.72;;
39256;SDS011;67272;48.066;11.038;2023-06-22T01:31:13;7.28;;;4.45;;
39256;SDS011;67272;48.066;11.038;2023-06-22T01:33:47;9.50;;;4.35;;
39256;SDS011;67272;48.066;11.038;2023-06-22T01:36:17;7.13;;;4.60;;
39256;SDS011;67272;48.066;11.038;2023-06-22T01:38:45;6.15;;;4.20;;
39256;SDS011;67272;48.066;11.038;2023-06-22T01:41:12;5.97;;;3.85;;
39256;SDS011;67272;48.066;11.038;2023-06-22T01:43:42;7.88;;;4.38;;
39256;SDS011;67272;48.066;11.038;2023-06-22T01:46:08;5.43;;;4.80;;
39256;SDS011;67272;48.066;11.038;2023-06-22T01:48:36;5.53;;;4.22;;
39256;SDS011;67272;48.066;11.038;2023-06-22T01:51:02;5.95;;;4.15;;
39256;SDS011;67272;48.066;11.038;2023-06-22T01:53:32;7.05;;;4.32;;
39256;SDS011;67272;48.066;11.038;2023-06-22T01:55:58;4.90;;;4.03;;
39256;SDS011;67272;48.066;11.038;2023-06-22T01:58:31;6.15;;;4.28;;
39256;SDS011;67272;48.066;11.038;2023-06-22T02:00:58;7.35;;;4.28;;
39256;SDS011;67272;48.066;11.038;2023-06-22T02:03:34;4.95;;;4.45;;
39256;SDS011;67272;48.066;11.038;2023-06-22T02:06:10;5.35;;;4.10;;
39256;SDS011;67272;48.066;11.038;2023-06-22T02:08:38;9.80;;;4.72;;
39256;SDS011;67272;48.066;11.038;2023-06-22T02:11:13;6.05;;;4.18;;
39256;SDS011;67272;48.066;11.038;2023-06-22T02:13:41;7.35;;;4.43;;
39256;SDS011;67272;48.066;11.038;2023-06-22T02:16:09;8.02;;;4.80;;
39256;SDS011;67272;48.066;11.038;2023-06-22T02:18:47;5.60;;;4.15;;
39256;SDS011;67272;48.066;11.038;2023-06-22T02:21:37;6.20;;;4.53;;
39256;SDS011;67272;48.066;11.038;2023-06-22T02:24:03;6.15;;;4.70;;
39256;SDS011;67272;48.066;11.038;2023-06-22T02:26:33;6.13;;;4.85;;
39256;SDS011;67272;48.066;11.038;2023-06-22T02:29:01;6.45;;;4.82;;
39256;SDS011;67272;48.066;11.038;2023-06-22T02:31:30;6.15;;;4.82;;
39256;SDS011;67272;48.066;11.038;2023-06-22T02:33:57;7.10;;;5.13;;
39256;SDS011;67272;48.066;11.038;2023-06-22T02:36:24;6.25;;;4.90;;
39256;SDS011;67272;48.066;11.038;2023-06-22T02:38:52;8.45;;;5.32;;
39256;SDS011;67272;48.066;11.038;2023-06-22T02:41:19;7.43;;;5.18;;
39256;SDS011;67272;48.066;11.038;2023-06-22T02:43:47;8.15;;;5.10;;
39256;SDS011;67272;48.066;11.038;2023-06-22T02:46:14;6.47;;;5.30;;
39256;SDS011;67272;48.066;11.038;2023-06-22T02:48:51;8.45;;;5.13;;
39256;SDS011;67272;48.066;11.038;2023-06-22T02:51:17;6.25;;;5.30;;
39256;SDS011;67272;48.066;11.038;2023-06-22T02:53:44;6.50;;;5.63;;
39256;SDS011;67272;48.066;11.038;2023-06-22T02:56:12;9.48;;;5.50;;
39256;SDS011;67272;48.066;11.038;2023-06-22T02:58:39;6.28;;;5.10;;
39256;SDS011;67272;48.066;11.038;2023-06-22T03:01:12;7.97;;;5.40;;
39256;SDS011;67272;48.066;11.038;2023-06-22T03:03:40;6.43;;;5.18;;
39256;SDS011;67272;48.066;11.038;2023-06-22T03:06:13;7.80;;;6.32;;
39256;SDS011;67272;48.066;11.038;2023-06-22T03:08:39;5.75;;;5.00;;
39256;SDS011;67272;48.066;11.038;2023-06-22T03:11:07;8.05;;;5.32;;
39256;SDS011;67272;48.066;11.038;2023-06-22T03:13:37;8.45;;;5.95;;
39256;SDS011;67272;48.066;11.038;2023-06-22T03:16:04;7.78;;;5.93;;
39256;SDS011;67272;48.066;11.038;2023-06-22T03:18:31;8.27;;;5.05;;
39256;SDS011;67272;48.066;11.038;2023-06-22T03:21:00;9.38;;;5.80;;
39256;SDS011;67272;48.066;11.038;2023-06-22T03:23:27;8.32;;;5.45;;
39256;SDS011;67272;48.066;11.038;2023-06-22T03:25:54;7.18;;;5.13;;
39256;SDS011;67272;48.066;11.038;2023-06-22T03:28:23;8.63;;;5.47;;
39256;SDS011;67272;48.066;11.038;2023-06-22T03:30:52;9.32;;;5.03;;
39256;SDS011;67272;48.066;11.038;2023-06-22T03:33:19;7.63;;;5.32;;
39256;SDS011;67272;48.066;11.038;2023-06-22T03:35:51;6.00;;;5.38;;
39256;SDS011;67272;48.066;11.038;2023-06-22T03:38:26;9.30;;;5.78;;
39256;SDS011;67272;48.066;11.038;2023-06-22T03:40:54;5.32;;;4.45;;
39256;SDS011;67272;48.066;11.038;2023-06-22T03:43:22;6.13;;;5.50;;
39256;SDS011;67272;48.066;11.038;2023-06-22T03:45:55;7.30;;;4.78;;
39256;SDS011;67272;48.066;11.038;2023-06-22T03:48:25;5.95;;;4.75;;
39256;SDS011;67272;48.066;11.038;2023-06-22T03:50:58;7.57;;;4.38;;
39256;SDS011;67272;48.066;11.038;2023-06-22T03:53:25;6.90;;;4.90;;
39256;SDS011;67272;48.066;11.038;2023-06-22T03:55:54;6.63;;;4.38;;
39256;SDS011;67272;48.066;11.038;2023-06-22T03:58:23;4.88;;;4.20;;
39256;SDS011;67272;48.066;11.038;2023-06-22T04:00:50;6.07;;;4.40;;
39256;SDS011;67272;48.066;11.038;2023-06-22T04:03:17;6.57;;;5.15;;
39256;SDS011;67272;48.066;11.038;2023-06-22T04:05:44;6.38;;;4.38;;
39256;SDS011;67272;48.066;11.038;2023-06-22T04:08:12;6.75;;;4.70;;
39256;SDS011;67272;48.066;11.038;2023-06-22T04:10:38;7.40;;;5.60;;
39256;SDS011;67272;48.066;11.038;2023-06-22T04:13:04;8.32;;;6.47;;
39256;SDS011;67272;48.066;11.038;2023-06-22T04:15:31;9.38;;;6.95;;
39256;SDS011;67272;48.066;11.038;2023-06-22T04:17:57;7.82;;;5.65;;
39256;SDS011;67272;48.066;11.038;2023-06-22T04:20:24;6.47;;;5.28;;
39256;SDS011;67272;48.066;11.038;2023-06-22T04:22:59;5.72;;;4.85;;
39256;SDS011;67272;48.066;11.038;2023-06-22T04:25:25;6.85;;;4.75;;
39256;SDS011;67272;48.066;11.038;2023-06-22T04:27:52;7.47;;;5.30;;
39256;SDS011;67272;48.066;11.038;2023-06-22T04:30:24;7.05;;;4.85;;
39256;SDS011;67272;48.066;11.038;2023-06-22T04:32:53;5.88;;;4.90;;
39256;SDS011;67272;48.066;11.038;2023-06-22T04:35:23;6.00;;;4.53;;
39256;SDS011;67272;48.066;11.038;2023-06-22T04:37:50;7.97;;;5.40;;
39256;SDS011;67272;48.066;11.038;2023-06-22T04:40:26;5.20;;;4.57;;
39256;SDS011;67272;48.066;11.038;2023-06-22T04:43:01;7.15;;;4.82;;
39256;SDS011;67272;48.066;11.038;2023-06-22T04:45:30;6.85;;;5.38;;
39256;SDS011;67272;48.066;11.038;2023-06-22T04:47:57;6.40;;;4.82;;
39256;SDS011;67272;48.066;11.038;2023-06-22T04:50:23;7.55;;;4.82;;
39256;SDS011;67272;48.066;11.038;2023-06-22T04:52:53;6.43;;;4.80;;
39256;SDS011;67272;48.066;11.038;2023-06-22T04:55:19;7.03;;;5.15;;
39256;SDS011;67272;48.066;11.038;2023-06-22T04:57:46;6.53;;;4.93;;
39256;SDS011;67272;48.066;11.038;2023-06-22T05:00:16;6.55;;;5.03;;
39256;SDS011;67272;48.066;11.038;2023-06-22T05:02:46;7.82;;;5.43;;
39256;SDS011;67272;48.066;11.038;2023-06-22T05:05:13;7.88;;;5.22;;
39256;SDS011;67272;48.066;11.038;2023-06-22T05:07:43;6.47;;;4.70;;
39256;SDS011;67272;48.066;11.038;2023-06-22T05:10:10;5.65;;;4.88;;
39256;SDS011;67272;48.066;11.038;2023-06-22T05:12:43;7.95;;;5.18;;
39256;SDS011;67272;48.066;11.038;2023-06-22T05:15:16;6.55;;;5.15;;
39256;SDS011;67272;48.066;11.038;2023-06-22T05:18:04;6.40;;;5.20;;
39256;SDS011;67272;48.066;11.038;2023-06-22T05:20:30;6.32;;;5.20;;
39256;SDS011;67272;48.066;11.038;2023-06-22T05:23:04;7.03;;;4.82;;
39256;SDS011;67272;48.066;11.038;2023-06-22T05:25:30;5.80;;;5.15;;
39256;SDS011;67272;48.066;11.038;2023-06-22T05:27:58;6.80;;;5.75;;
39256;SDS011;67272;48.066;11.038;2023-06-22T05:30:24;7.88;;;5.10;;
39256;SDS011;67272;48.066;11.038;2023-06-22T05:32:53;8.57;;;5.30;;
39256;SDS011;67272;48.066;11.038;2023-06-22T05:35:29;6.20;;;5.18;;
39256;SDS011;67272;48.066;11.038;2023-06-22T05:37:58;7.65;;;5.65;;
39256;SDS011;67272;48.066;11.038;2023-06-22T05:40:24;9.32;;;5.95;;
39256;SDS011;67272;48.066;11.038;2023-06-22T05:42:50;8.02;;;6.00;;
39256;SDS011;67272;48.066;11.038;2023-06-22T05:45:17;6.43;;;5.55;;
39256;SDS011;67272;48.066;11.038;2023-06-22T05:47:55;7.70;;;6.32;;
39256;SDS011;67272;48.066;11.038;2023-06-22T05:50:22;8.45;;;5.82;;
39256;SDS011;67272;48.066;11.038;2023-06-22T05:52:48;6.05;;;5.35;;
39256;SDS011;67272;48.066;11.038;2023-06-22T05:55:17;6.88;;;5.55;;
39256;SDS011;67272;48.066;11.038;2023-06-22T05:57:47;9.48;;;5.90;;
39256;SDS011;67272;48.066;11.038;2023-06-22T06:00:13;7.80;;;6.55;;
39256;SDS011;67272;48.066;11.038;2023-06-22T06:02:43;7.70;;;6.18;;
39256;SDS011;67272;48.066;11.038;2023-06-22T06:05:10;6.85;;;5.90;;
39256;SDS011;67272;48.066;11.038;2023-06-22T06:07:39;8.23;;;6.38;;
39256;SDS011;67272;48.066;11.038;2023-06-22T06:10:05;8.45;;;6.38;;
39256;SDS011;67272;48.066;11.038;2023-06-22T06:12:38;10.00;;;6.80;;
39256;SDS011;67272;48.066;11.038;2023-06-22T06:15:04;7.15;;;5.80;;
39256;SDS011;67272;48.066;11.038;2023-06-22T06:17:33;8.97;;;7.13;;
39256;SDS011;67272;48.066;11.038;2023-06-22T06:20:06;13.73;;;7.40;;
39256;SDS011;67272;48.066;11.038;2023-06-22T06:22:39;6.88;;;5.55;;
39256;SDS011;67272;48.066;11.038;2023-06-22T06:25:17;10.20;;;6.32;;
39256;SDS011;67272;48.066;11.038;2023-06-22T06:27:50;7.70;;;6.70;;
39256;SDS011;67272;48.066;11.038;2023-06-22T06:30:20;8.43;;;7.00;;
39256;SDS011;67272;48.066;11.038;2023-06-22T06:32:50;8.60;;;6.63;;
39256;SDS011;67272;48.066;11.038;2023-06-22T06:35:20;7.50;;;5.88;;
39256;SDS011;67272;48.066;11.038;2023-06-22T06:37:48;9.98;;;7.07;;
39256;SDS011;67272;48.066;11.038;2023-06-22T06:40:15;8.77;;;6.88;;
39256;SDS011;67272;48.066;11.038;2023-06-22T06:42:45;8.73;;;6.78;;
39256;SDS011;67272;48.066;11.038;2023-06-22T06:45:12;9.10;;;7.43;;
39256;SDS011;67272;48.066;11.038;2023-06-22T06:47:45;9.95;;;7.20;;
39256;SDS011;67272;48.066;11.038;2023-06-22T06:50:12;9.73;;;6.03;;
39256;SDS011;67272;48.066;11.038;2023-06-22T06:52:38;6.85;;;6.20;;
39256;SDS011;67272;48.066;11.038;2023-06-22T06:55:05;10.40;;;6.30;;
39256;SDS011;67272;48.066;11.038;2023-06-22T06:57:33;10.43;;;6.25;;
39256;SDS011;67272;48.066;11.038;2023-06-22T07:00:00;11.60;;;6.57;;
39256;SDS011;67272;48.066;11.038;2023-06-22T07:02:26;9.35;;;6.22;;
39256;SDS011;67272;48.066;11.038;2023-06-22T07:04:54;9.27;;;6.43;;
39256;SDS011;67272;48.066;11.038;2023-06-22T07:07:21;8.93;;;7.03;;
39256;SDS011;67272;48.066;11.038;2023-06-22T07:09:50;8.10;;;6.75;;
39256;SDS011;67272;48.066;11.038;2023-06-22T07:12:16;9.07;;;6.35;;
39256;SDS011;67272;48.066;11.038;2023-06-22T07:14:43;10.60;;;7.13;;
39256;SDS011;67272;48.066;11.038;2023-06-22T07:17:12;8.10;;;6.50;;
39256;SDS011;67272;48.066;11.038;2023-06-22T07:19:44;7.65;;;6.60;;
39256;SDS011;67272;48.066;11.038;2023-06-22T07:22:13;9.65;;;6.60;;
39256;SDS011;67272;48.066;11.038;2023-06-22T07:24:40;7.28;;;6.43;;
39256;SDS011;67272;48.066;11.038;2023-06-22T07:27:06;8.45;;;6.95;;
39256;SDS011;67272;48.066;11.038;2023-06-22T07:29:32;8.45;;;6.47;;
39256;SDS011;67272;48.066;11.038;2023-06-22T07:31:59;8.85;;;7.47;;
39256;SDS011;67272;48.066;11.038;2023-06-22T07:34:26;10.32;;;7.55;;
39256;SDS011;67272;48.066;11.038;2023-06-22T07:36:58;10.32;;;6.95;;
39256;SDS011;67272;48.066;11.038;2023-06-22T07:39:30;7.57;;;6.50;;
39256;SDS011;67272;48.066;11.038;2023-06-22T07:41:57;8.57;;;6.30;;
39256;SDS011;67272;48.066;11.038;2023-06-22T07:44:23;9.85;;;6.93;;
39256;SDS011;67272;48.066;11.038;2023-06-22T07:46:50;6.80;;;6.10;;
39256;SDS011;67272;48.066;11.038;2023-06-22T07:49:22;10.20;;;7.50;;
39256;SDS011;67272;48.066;11.038;2023-06-22T07:51:49;12.23;;;7.13;;
39256;SDS011;67272;48.066;11.038;2023-06-22T07:54:15;7.57;;;6.75;;
39256;SDS011;67272;48.066;11.038;2023-06-22T07:56:42;11.30;;;6.97;;
39256;SDS011;67272;48.066;11.038;2023-06-22T07:59:09;12.95;;;7.60;;
39256;SDS011;67272;48.066;11.038;2023-06-22T08:01:35;9.80;;;7.43;;
39256;SDS011;67272;48.066;11.038;2023-06-22T08:04:01;9.05;;;7.20;;
39256;SDS011;67272;48.066;11.038;2023-06-22T08:06:31;10.50;;;7.07;;
39256;SDS011;67272;48.066;11.038;2023-06-22T08:08:57;9.15;;;7.28;;
39256;SDS011;67272;48.066;11.038;2023-06-22T08:11:24;10.10;;;6.78;;
39256;SDS011;67272;48.066;11.038;2023-06-22T08:13:51;10.45;;;6.93;;
39256;SDS011;67272;48.066;11.038;2023-06-22T08:16:17;10.00;;;7.85;;
39256;SDS011;67272;48.066;11.038;2023-06-22T08:18:43;16.10;;;7.47;;
39256;SDS011;67272;48.066;11.038;2023-06-22T08:21:09;10.82;;;7.00;;
39256;SDS011;67272;48.066;11.038;2023-06-22T08:23:36;12.68;;;7.72;;
39256;SDS011;67272;48.066;11.038;2023-06-22T08:26:03;10.82;;;7.60;;
39256;SDS011;67272;48.066;11.038;2023-06-22T08:28:29;12.52;;;7.00;;
39256;SDS011;67272;48.066;11.038;2023-06-22T08:30:56;8.43;;;6.75;;
39256;SDS011;67272;48.066;11.038;2023-06-22T08:33:22;10.15;;;7.40;;
39256;SDS011;67272;48.066;11.038;2023-06-22T08:35:57;11.90;;;8.20;;
39256;SDS011;67272;48.066;11.038;2023-06-22T08:38:24;11.40;;;7.18;;
39256;SDS011;67272;48.066;11.038;2023-06-22T08:40:51;8.57;;;7.03;;
39256;SDS011;67272;48.066;11.038;2023-06-22T08:43:17;9.18;;;7.68;;
39256;SDS011;67272;48.066;11.038;2023-06-22T08:45:44;11.07;;;7.25;;
39256;SDS011;67272;48.066;11.038;2023-06-22T08:48:11;10.18;;;7.15;;
39256;SDS011;67272;48.066;11.038;2023-06-22T08:50:37;7.95;;;6.80;;
39256;SDS011;67272;48.066;11.038;2023-06-22T08:53:05;9.18;;;6.95;;
39256;SDS011;67272;48.066;11.038;2023-06-22T08:55:31;10.23;;;7.25;;
39256;SDS011;67272;48.066;11.038;2023-06-22T08:57:58;8.05;;;6.72;;
39256;SDS011;67272;48.066;11.038;2023-06-22T09:00:24;8.82;;;7.60;;
39256;SDS011;67272;48.066;11.038;2023-06-22T09:02:50;9.07;;;7.80;;
39256;SDS011;67272;48.066;11.038;2023-06-22T09:05:17;12.50;;;7.70;;
39256;SDS011;67272;48.066;11.038;2023-06-22T09:07:43;11.18;;;7.70;;
39256;SDS011;67272;48.066;11.038;2023-06-22T09:10:10;12.25;;;7.63;;
39256;SDS011;67272;48.066;11.038;2023-06-22T09:12:36;9.80;;;7.18;;
39256;SDS011;67272;48.066;11.038;2023-06-22T09:15:03;9.30;;;7.18;;
39256;SDS011;67272;48.066;11.038;2023-06-22T09:17:29;11.52;;;6.97;;
39256;SDS011;67272;48.066;11.038;2023-06-22T09:19:55;9.00;;;7.20;;
39256;SDS011;67272;48.066;11.038;2023-06-22T09:22:22;10.43;;;6.85;;
39256;SDS011;67272;48.066;11.038;2023-06-22T09:24:54;10.60;;;7.72;;
39256;SDS011;67272;48.066;11.038;2023-06-22T09:27:21;10.27;;;7.43;;
39256;SDS011;67272;48.066;11.038;2023-06-22T09:29:47;9.40;;;7.00;;
39256;SDS011;67272;48.066;11.038;2023-06-22T09:32:14;8.90;;;7.43;;
39256;SDS011;67272;48.066;11.038;2023-06-22T09:34:40;11.18;;;7.65;;
39256;SDS011;67272;48.066;11.038;2023-06-22T09:37:06;8.65;;;6.97;;
39256;SDS011;67272;48.066;11.038;2023-06-22T09:39:32;9.75;;;7.70;;
39256;SDS011;67272;48.066;11.038;2023-06-22T09:41:59;9.63;;;6.82;;
39256;SDS011;67272;48.066;11.038;2023-06-22T09:44:25;10.13;;;7.45;;
39256;SDS011;67272;48.066;11.038;2023-06-22T09:46:51;10.05;;;7.68;;
39256;SDS011;67272;48.066;11.038;2023-06-22T09:49:17;10.23;;;7.90;;
39256;SDS011;67272;48.066;11.038;2023-06-22T09:51:43;7.72;;;6.88;;
39256;SDS011;67272;48.066;11.038;2023-06-22T09:54:10;9.63;;;7.13;;
39256;SDS011;67272;48.066;11.038;2023-06-22T09:56:36;12.90;;;7.38;;
39256;SDS011;67272;48.066;11.038;2023-06-22T09:59:02;10.48;;;7.85;;
39256;SDS011;67272;48.066;11.038;2023-06-22T10:01:29;10.10;;;8.07;;
39256;SDS011;67272;48.066;11.038;2023-06-22T10:03:55;12.38;;;7.68;;
39256;SDS011;67272;48.066;11.038;2023-06-22T10:06:21;10.02;;;7.22;;
39256;SDS011;67272;48.066;11.038;2023-06-22T10:08:50;7.82;;;7.03;;
39256;SDS011;67272;48.066;11.038;2023-06-22T10:11:16;8.60;;;7.43;;
39256;SDS011;67272;48.066;11.038;2023-06-22T10:13:43;10.73;;;8.15;;
39256;SDS011;67272;48.066;11.038;2023-06-22T10:16:09;14.75;;;7.93;;
39256;SDS011;67272;48.066;11.038;2023-06-22T10:18:35;10.70;;;7.82;;
39256;SDS011;67272;48.066;11.038;2023-06-22T10:21:02;9.48;;;7.55;;
39256;SDS011;67272;48.066;11.038;2023-06-22T10:23:28;9.82;;;7.30;;
39256;SDS011;67272;48.066;11.038;2023-06-22T10:25:54;9.63;;;7.15;;
39256;SDS011;67272;48.066;11.038;2023-06-22T10:28:23;10.82;;;7.57;;
39256;SDS011;67272;48.066;11.038;2023-06-22T10:30:49;9.70;;;7.68;;
39256;SDS011;67272;48.066;11.038;2023-06-22T10:33:16;13.23;;;7.82;;
39256;SDS011;67272;48.066;11.038;2023-06-22T10:35:42;9.25;;;7.32;;
39256;SDS011;67272;48.066;11.038;2023-06-22T10:38:08;9.75;;;7.72;;
39256;SDS011;67272;48.066;11.038;2023-06-22T10:40:41;11.65;;;7.05;;
39256;SDS011;67272;48.066;11.038;2023-06-22T10:43:17;11.25;;;7.43;;
39256;SDS011;67272;48.066;11.038;2023-06-22T10:45:43;9.57;;;7.57;;
39256;SDS011;67272;48.066;11.038;2023-06-22T10:48:10;11.15;;;7.03;;
39256;SDS011;67272;48.066;11.038;2023-06-22T10:50:39;10.20;;;7.68;;
39256;SDS011;67272;48.066;11.038;2023-06-22T10:53:05;10.10;;;7.40;;
39256;SDS011;67272;48.066;11.038;2023-06-22T10:55:35;10.25;;;7.07;;
39256;SDS011;67272;48.066;11.038;2023-06-22T10:58:04;9.65;;;7.10;;
39256;SDS011;67272;48.066;11.038;2023-06-22T11:00:42;8.50;;;7.57;;
39256;SDS011;67272;48.066;11.038;2023-06-22T11:03:09;9.77;;;8.35;;
39256;SDS011;67272;48.066;11.038;2023-06-22T11:05:38;11.70;;;8.50;;
39256;SDS011;67272;48.066;11.038;2023-06-22T11:08:07;11.13;;;7.35;;
39256;SDS011;67272;48.066;11.038;2023-06-22T11:10:34;11.90;;;7.40;;
39256;SDS011;67272;48.066;11.038;2023-06-22T11:13:03;10.88;;;7.95;;
39256;SDS011;67272;48.066;11.038;2023-06-22T11:15:34;12.15;;;7.63;;
39256;SDS011;67272;48.066;11.038;2023-06-22T11:20:36;9.77;;;8.35;;
39256;SDS011;67272;48.066;11.038;2023-06-22T11:23:06;10.50;;;7.63;;
39256;SDS011;67272;48.066;11.038;2023-06-22T11:25:32;11.30;;;8.15;;
39256;SDS011;67272;48.066;11.038;2023-06-22T11:28:03;11.05;;;7.35;;
39256;SDS011;67272;48.066;11.038;2023-06-22T11:30:30;11.32;;;7.50;;
39256;SDS011;67272;48.066;11.038;2023-06-22T11:32:58;10.25;;;7.78;;
39256;SDS011;67272;48.066;11.038;2023-06-22T11:35:24;9.80;;;7.18;;
39256;SDS011;67272;48.066;11.038;2023-06-22T11:37:50;10.13;;;7.70;;
39256;SDS011;67272;48.066;11.038;2023-06-22T11:40:17;9.93;;;7.55;;
39256;SDS011;67272;48.066;11.038;2023-06-22T11:42:43;9.27;;;7.63;;
39256;SDS011;67272;48.066;11.038;2023-06-22T11:45:09;12.13;;;7.40;;
39256;SDS011;67272;48.066;11.038;2023-06-22T11:47:36;10.13;;;7.55;;
39256;SDS011;67272;48.066;11.038;2023-06-22T11:50:02;11.77;;;7.88;;
39256;SDS011;67272;48.066;11.038;2023-06-22T11:52:29;9.93;;;7.47;;
39256;SDS011;67272;48.066;11.038;2023-06-22T11:54:56;11.52;;;8.13;;
39256;SDS011;67272;48.066;11.038;2023-06-22T11:57:22;11.43;;;7.53;;
39256;SDS011;67272;48.066;11.038;2023-06-22T11:59:48;9.90;;;7.78;;
39256;SDS011;67272;48.066;11.038;2023-06-22T12:02:14;10.30;;;7.93;;
39256;SDS011;67272;48.066;11.038;2023-06-22T12:04:40;11.45;;;8.07;;
39256;SDS011;67272;48.066;11.038;2023-06-22T12:07:06;10.45;;;7.28;;
39256;SDS011;67272;48.066;11.038;2023-06-22T12:09:33;12.23;;;8.15;;
39256;SDS011;67272;48.066;11.038;2023-06-22T12:11:59;10.40;;;8.32;;
39256;SDS011;67272;48.066;11.038;2023-06-22T12:14:25;10.32;;;8.48;;
39256;SDS011;67272;48.066;11.038;2023-06-22T12:16:52;12.05;;;7.97;;
39256;SDS011;67272;48.066;11.038;2023-06-22T12:19:18;9.07;;;7.68;;
39256;SDS011;67272;48.066;11.038;2023-06-22T12:21:44;10.43;;;8.10;;
39256;SDS011;67272;48.066;11.038;2023-06-22T12:24:11;11.32;;;8.18;;
39256;SDS011;67272;48.066;11.038;2023-06-22T12:26:37;10.20;;;7.93;;
39256;SDS011;67272;48.066;11.038;2023-06-22T12:29:03;10.38;;;7.55;;
39256;SDS011;67272;48.066;11.038;2023-06-22T12:31:30;10.85;;;7.80;;
39256;SDS011;67272;48.066;11.038;2023-06-22T12:33:56;11.43;;;7.90;;
39256;SDS011;67272;48.066;11.038;2023-06-22T12:36:22;9.82;;;7.80;;
39256;SDS011;67272;48.066;11.038;2023-06-22T12:38:49;9.73;;;7.80;;
39256;SDS011;67272;48.066;11.038;2023-06-22T12:41:15;10.52;;;7.70;;
39256;SDS011;67272;48.066;11.038;2023-06-22T12:43:41;12.20;;;8.10;;
39256;SDS011;67272;48.066;11.038;2023-06-22T12:46:07;11.57;;;7.85;;
39256;SDS011;67272;48.066;11.038;2023-06-22T12:48:33;9.60;;;8.27;;
39256;SDS011;67272;48.066;11.038;2023-06-22T12:51:07;11.20;;;8.15;;
39256;SDS011;67272;48.066;11.038;2023-06-22T12:53:34;10.00;;;7.32;;
39256;SDS011;67272;48.066;11.038;2023-06-22T12:56:00;8.63;;;6.82;;
39256;SDS011;67272;48.066;11.038;2023-06-22T12:58:27;12.15;;;7.32;;
39256;SDS011;67272;48.066;11.038;2023-06-22T13:00:53;10.93;;;7.93;;
39256;SDS011;67272;48.066;11.038;2023-06-22T13:03:19;8.77;;;7.47;;
39256;SDS011;67272;48.066;11.038;2023-06-22T13:05:46;8.05;;;7.22;;
39256;SDS011;67272;48.066;11.038;2023-06-22T13:08:12;8.68;;;7.53;;
39256;SDS011;67272;48.066;11.038;2023-06-22T13:10:45;8.55;;;7.55;;
39256;SDS011;67272;48.066;11.038;2023-06-22T13:13:11;9.85;;;7.40;;
39256;SDS011;67272;48.066;11.038;2023-06-22T13:15:38;11.05;;;8.10;;
39256;SDS011;67272;48.066;11.038;2023-06-22T13:18:04;10.60;;;7.50;;
39256;SDS011;67272;48.066;11.038;2023-06-22T13:20:30;11.20;;;7.45;;
39256;SDS011;67272;48.066;11.038;2023-06-22T13:22:57;9.18;;;7.70;;
39256;SDS011;67272;48.066;11.038;2023-06-22T13:25:23;11.90;;;7.68;;
39256;SDS011;67272;48.066;11.038;2023-06-22T13:27:51;9.68;;;7.65;;
39256;SDS011;67272;48.066;11.038;2023-06-22T13:30:17;10.10;;;7.93;;
39256;SDS011;67272;48.066;11.038;2023-06-22T13:32:44;9.20;;;8.02;;
39256;SDS011;67272;48.066;11.038;2023-06-22T13:35:11;10.07;;;7.60;;
39256;SDS011;67272;48.066;11.038;2023-06-22T13:37:37;10.45;;;7.25;;
39256;SDS011;67272;48.066;11.038;2023-06-22T13:40:04;11.57;;;7.47;;
39256;SDS011;67272;48.066;11.038;2023-06-22T13:42:35;9.70;;;7.53;;
39256;SDS011;67272;48.066;11.038;2023-06-22T13:45:01;8.88;;;6.85;;
39256;SDS011;67272;48.066;11.038;2023-06-22T13:47:31;9.20;;;7.13;;
39256;SDS011;67272;48.066;11.038;2023-06-22T13:49:57;9.57;;;7.65;;
39256;SDS011;67272;48.066;11.038;2023-06-22T13:52:24;10.23;;;7.72;;
39256;SDS011;67272;48.066;11.038;2023-06-22T13:54:54;13.75;;;7.13;;
39256;SDS011;67272;48.066;11.038;2023-06-22T13:57:20;10.02;;;6.28;;
39256;SDS011;67272;48.066;11.038;2023-06-22T13:59:49;9.45;;;6.90;;
39256;SDS011;67272;48.066;11.038;2023-06-22T14:02:16;10.07;;;6.68;;
39256;SDS011;67272;48.066;11.038;2023-06-22T14:04:42;8.93;;;6.22;;
39256;SDS011;67272;48.066;11.038;2023-06-22T14:07:09;8.40;;;5.78;;
39256;SDS011;67272;48.066;11.038;2023-06-22T14:09:35;10.18;;;6.53;;
39256;SDS011;67272;48.066;11.038;2023-06-22T14:12:07;8.82;;;6.03;;
39256;SDS011;67272;48.066;11.038;2023-06-22T14:14:34;7.55;;;4.85;;
39256;SDS011;67272;48.066;11.038;2023-06-22T14:17:00;9.05;;;5.35;;
39256;SDS011;67272;48.066;11.038;2023-06-22T14:19:26;12.45;;;5.32;;
39256;SDS011;67272;48.066;11.038;2023-06-22T14:21:53;8.32;;;5.20;;
39256;SDS011;67272;48.066;11.038;2023-06-22T14:24:19;9.20;;;4.85;;
39256;SDS011;67272;48.066;11.038;2023-06-22T14:26:46;10.05;;;5.95;;
39256;SDS011;67272;48.066;11.038;2023-06-22T14:29:12;8.48;;;5.30;;
39256;SDS011;67272;48.066;11.038;2023-06-22T14:31:38;7.20;;;5.90;;
39256;SDS011;67272;48.066;11.038;2023-06-22T14:34:10;8.50;;;6.05;;
39256;SDS011;67272;48.066;11.038;2023-06-22T14:36:37;10.50;;;5.70;;
39256;SDS011;67272;48.066;11.038;2023-06-22T14:39:03;8.40;;;5.63;;
39256;SDS011;67272;48.066;11.038;2023-06-22T14:41:33;9.40;;;5.65;;
39256;SDS011;67272;48.066;11.038;2023-06-22T14:43:59;9.02;;;6.40;;
39256;SDS011;67272;48.066;11.038;2023-06-22T14:46:25;9.48;;;5.32;;